Time;durP1;ratioP1;P1;durP2;ratioP2;P2;SDS_P1;SDS_P2;PMS_P1;PMS_P2;Temp;Humidity;BMP_temperature;BMP_pressure;BME280_temperature;BME280_humidity;BME280_pressure;Samples;Min_cycle;Max_cycle;Signal;HPM_P1;HPM_P2
2023/07/19 00:01:10;;;;;;;9.93;6.00;;;;;;;;;;5049723;28;20618;-68
2023/07/19 00:03:38;;;;;;;12.03;6.33;;;;;;;;;;5050241;28;21293;-68
2023/07/19 00:06:06;;;;;;;7.90;5.70;;;;;;;;;;5050989;28;20633;-69
2023/07/19 00:08:35;;;;;;;9.70;5.63;;;;;;;;;;5052331;28;20642;-68
2023/07/19 00:11:04;;;;;;;7.77;5.87;;;;;;;;;;5070888;28;20650;-68
2023/07/19 00:13:32;;;;;;;7.50;6.73;;;;;;;;;;5071650;28;20999;-69
2023/07/19 00:16:01;;;;;;;6.40;5.77;;;;;;;;;;5071439;28;20632;-68
2023/07/19 00:18:29;;;;;;;5.97;5.47;;;;;;;;;;5071201;28;20628;-67
2023/07/19 00:20:57;;;;;;;7.43;5.73;;;;;;;;;;5070730;28;20974;-67
2023/07/19 00:23:25;;;;;;;6.73;5.40;;;;;;;;;;5069224;28;20661;-67
2023/07/19 00:25:54;;;;;;;8.10;5.90;;;;;;;;;;5071230;28;20637;-68
2023/07/19 00:28:23;;;;;;;12.63;6.67;;;;;;;;;;5070954;28;20952;-68
2023/07/19 00:31:00;;;;;;;11.23;7.03;;;;;;;;;;5069951;28;20598;-68
2023/07/19 00:33:28;;;;;;;8.20;6.27;;;;;;;;;;5070982;28;20609;-68
2023/07/19 00:35:57;;;;;;;8.40;5.70;;;;;;;;;;5070704;28;21195;-68
2023/07/19 00:38:25;;;;;;;7.67;5.93;;;;;;;;;;5071138;28;20630;-69
2023/07/19 00:40:53;;;;;;;6.03;5.43;;;;;;;;;;5069659;28;21153;-68
2023/07/19 00:43:23;;;;;;;9.20;6.60;;;;;;;;;;5071815;28;20712;-69
2023/07/19 00:45:53;;;;;;;7.10;6.07;;;;;;;;;;5074971;28;20614;-68
2023/07/19 00:48:22;;;;;;;8.00;7.03;;;;;;;;;;5074359;28;20610;-68
2023/07/19 00:50:51;;;;;;;10.70;6.77;;;;;;;;;;5075206;28;20628;-68
2023/07/19 00:53:20;;;;;;;13.30;6.60;;;;;;;;;;5074942;28;20617;-68
2023/07/19 00:55:50;;;;;;;7.40;5.93;;;;;;;;;;5075451;28;20703;-69
2023/07/19 00:58:19;;;;;;;12.03;7.03;;;;;;;;;;5054772;28;20649;-68
2023/07/19 01:00:49;;;;;;;8.80;6.47;;;;;;;;;;5073132;28;20624;-69
2023/07/19 01:03:18;;;;;;;8.33;6.80;;;;;;;;;;5074033;28;20625;-68
2023/07/19 01:05:46;;;;;;;7.53;6.83;;;;;;;;;;5073952;28;20625;-69
2023/07/19 01:08:14;;;;;;;8.03;7.20;;;;;;;;;;5073359;28;21168;-68
2023/07/19 01:10:42;;;;;;;7.03;6.20;;;;;;;;;;5069312;28;21069;-68
2023/07/19 01:13:12;;;;;;;6.70;6.07;;;;;;;;;;5046531;28;20619;-68
2023/07/19 01:15:41;;;;;;;13.40;6.80;;;;;;;;;;5073174;28;20629;-68
2023/07/19 01:18:10;;;;;;;9.80;6.60;;;;;;;;;;5074616;28;20638;-67
2023/07/19 01:20:39;;;;;;;8.60;6.60;;;;;;;;;;5074301;28;20633;-69
2023/07/19 01:23:09;;;;;;;9.53;7.20;;;;;;;;;;5074005;28;21226;-68
2023/07/19 01:25:37;;;;;;;7.00;6.30;;;;;;;;;;5073495;28;21027;-68
2023/07/19 01:28:05;;;;;;;15.27;6.60;;;;;;;;;;5074036;28;20636;-68
2023/07/19 01:30:33;;;;;;;8.13;6.50;;;;;;;;;;5068280;28;20623;-69
2023/07/19 01:33:02;;;;;;;9.30;6.80;;;;;;;;;;5067177;28;20632;-69
2023/07/19 01:35:31;;;;;;;7.73;7.00;;;;;;;;;;5072555;28;21175;-67
2023/07/19 01:38:00;;;;;;;9.83;6.63;;;;;;;;;;5071034;28;20604;-68
2023/07/19 01:40:30;;;;;;;10.60;7.53;;;;;;;;;;5072620;28;20942;-68
2023/07/19 01:42:58;;;;;;;7.50;6.73;;;;;;;;;;5073616;28;20629;-69
2023/07/19 01:45:28;;;;;;;7.10;6.40;;;;;;;;;;5072761;28;20626;-68
2023/07/19 01:47:56;;;;;;;11.63;7.30;;;;;;;;;;5074181;28;20629;-69
2023/07/19 01:50:24;;;;;;;7.50;6.80;;;;;;;;;;5065060;28;20601;-68
2023/07/19 01:52:52;;;;;;;7.40;6.07;;;;;;;;;;5067371;28;20618;-68
2023/07/19 01:55:21;;;;;;;9.63;7.23;;;;;;;;;;5063320;28;20629;-68
2023/07/19 01:57:50;;;;;;;8.20;6.23;;;;;;;;;;5052771;28;20661;-68
2023/07/19 02:00:19;;;;;;;8.90;6.90;;;;;;;;;;5082865;28;20697;-64
2023/07/19 02:02:48;;;;;;;9.63;6.87;;;;;;;;;;5086068;28;21212;-64
2023/07/19 02:05:17;;;;;;;7.77;6.90;;;;;;;;;;5084550;28;20741;-65
2023/07/19 02:07:45;;;;;;;8.67;6.87;;;;;;;;;;5076352;28;20698;-64
2023/07/19 02:10:14;;;;;;;8.90;7.43;;;;;;;;;;5084516;28;20718;-68
2023/07/19 02:12:42;;;;;;;7.83;7.00;;;;;;;;;;5084808;28;20675;-65
2023/07/19 02:15:12;;;;;;;13.23;7.10;;;;;;;;;;5086195;28;20752;-65
2023/07/19 02:17:40;;;;;;;8.43;7.50;;;;;;;;;;5066380;28;20718;-65
2023/07/19 02:20:09;;;;;;;7.90;7.10;;;;;;;;;;5077233;28;20718;-63
2023/07/19 02:22:39;;;;;;;9.17;7.40;;;;;;;;;;5086516;28;20685;-63
2023/07/19 02:25:07;;;;;;;9.13;7.07;;;;;;;;;;5086050;28;20930;-64
2023/07/19 02:27:35;;;;;;;10.30;8.43;;;;;;;;;;5086374;28;20709;-63
2023/07/19 02:30:04;;;;;;;9.40;7.30;;;;;;;;;;5085219;28;20753;-64
2023/07/19 02:32:34;;;;;;;11.77;7.23;;;;;;;;;;5087412;28;20653;-63
2023/07/19 02:35:02;;;;;;;9.13;7.70;;;;;;;;;;5086424;28;20646;-64
2023/07/19 02:37:30;;;;;;;9.17;7.60;;;;;;;;;;5086545;28;21223;-64
2023/07/19 02:39:58;;;;;;;11.93;8.33;;;;;;;;;;5086984;28;20649;-65
2023/07/19 02:42:26;;;;;;;11.63;8.70;;;;;;;;;;5085733;28;20673;-63
2023/07/19 02:44:55;;;;;;;13.70;10.00;;;;;;;;;;5086172;28;20742;-64
2023/07/19 02:47:24;;;;;;;16.17;10.40;;;;;;;;;;5085295;28;20689;-65
2023/07/19 02:49:54;;;;;;;10.73;9.07;;;;;;;;;;5088326;28;20639;-64
2023/07/19 02:52:22;;;;;;;12.57;10.03;;;;;;;;;;5086269;28;20650;-64
2023/07/19 02:54:50;;;;;;;15.73;9.87;;;;;;;;;;5086886;28;20678;-64
2023/07/19 02:57:18;;;;;;;12.67;8.63;;;;;;;;;;5086619;28;20646;-64
2023/07/19 02:59:46;;;;;;;11.03;9.00;;;;;;;;;;5086819;28;20577;-65
2023/07/19 03:02:14;;;;;;;9.50;8.60;;;;;;;;;;5085868;28;21288;-68
2023/07/19 03:04:43;;;;;;;10.03;9.00;;;;;;;;;;5085672;28;20773;-67
2023/07/19 03:07:12;;;;;;;10.10;9.00;;;;;;;;;;5085435;28;20706;-67
2023/07/19 03:09:41;;;;;;;14.20;8.70;;;;;;;;;;5085620;28;20682;-64
2023/07/19 03:12:09;;;;;;;14.27;10.20;;;;;;;;;;5080227;28;20690;-65
2023/07/19 03:14:38;;;;;;;13.07;10.03;;;;;;;;;;5073144;28;20618;-64
2023/07/19 03:17:06;;;;;;;15.03;10.13;;;;;;;;;;5073070;28;20618;-65
2023/07/19 03:19:35;;;;;;;14.50;11.07;;;;;;;;;;5075170;28;20603;-65
2023/07/19 03:22:03;;;;;;;12.60;9.77;;;;;;;;;;5074099;28;20610;-64
2023/07/19 03:24:33;;;;;;;14.03;10.27;;;;;;;;;;5074005;28;20656;-65
2023/07/19 03:27:01;;;;;;;12.30;9.40;;;;;;;;;;5073224;28;20636;-64
2023/07/19 03:29:29;;;;;;;16.13;9.70;;;;;;;;;;5074053;28;20656;-64
2023/07/19 03:31:57;;;;;;;10.50;9.33;;;;;;;;;;5073978;28;20634;-68
2023/07/19 03:34:26;;;;;;;11.27;9.93;;;;;;;;;;5072481;28;20718;-69
2023/07/19 03:36:54;;;;;;;12.70;10.80;;;;;;;;;;5072952;28;20944;-68
2023/07/19 03:39:24;;;;;;;15.60;11.00;;;;;;;;;;5072163;28;20643;-68
2023/07/19 03:41:54;;;;;;;17.97;12.30;;;;;;;;;;5063389;28;20960;-69
2023/07/19 03:44:23;;;;;;;13.60;10.10;;;;;;;;;;5054560;28;20642;-68
2023/07/19 03:46:53;;;;;;;12.50;10.93;;;;;;;;;;5054130;28;20622;-69
2023/07/19 03:49:22;;;;;;;13.73;10.00;;;;;;;;;;5067165;28;20631;-68
2023/07/19 03:51:50;;;;;;;14.70;10.50;;;;;;;;;;5071795;28;20592;-68
2023/07/19 03:54:20;;;;;;;12.53;10.10;;;;;;;;;;5071362;28;20621;-67
2023/07/19 03:56:49;;;;;;;14.80;10.17;;;;;;;;;;5071605;28;20614;-66
2023/07/19 03:59:18;;;;;;;11.70;9.80;;;;;;;;;;5071262;28;20646;-68
2023/07/19 04:01:47;;;;;;;12.40;10.33;;;;;;;;;;5070906;28;20618;-68
2023/07/19 04:04:15;;;;;;;12.33;9.50;;;;;;;;;;5071333;28;20624;-68
2023/07/19 04:06:43;;;;;;;12.13;9.70;;;;;;;;;;5071540;28;20620;-68
2023/07/19 04:09:12;;;;;;;11.57;9.60;;;;;;;;;;5054260;28;20615;-68
2023/07/19 04:11:41;;;;;;;10.90;8.53;;;;;;;;;;5050660;28;20735;-67
2023/07/19 04:14:09;;;;;;;9.90;8.90;;;;;;;;;;5067347;28;20970;-68
2023/07/19 04:16:39;;;;;;;12.80;9.80;;;;;;;;;;5071950;28;21233;-69
2023/07/19 04:19:07;;;;;;;11.30;8.60;;;;;;;;;;5070354;28;21236;-68
2023/07/19 04:21:45;;;;;;;9.90;8.27;;;;;;;;;;5071552;28;20931;-68
2023/07/19 04:24:13;;;;;;;10.90;8.77;;;;;;;;;;5072458;28;20630;-69
2023/07/19 04:26:42;;;;;;;13.00;8.17;;;;;;;;;;5071855;28;20582;-68
2023/07/19 04:29:10;;;;;;;15.27;7.47;;;;;;;;;;5070845;28;21184;-68
2023/07/19 04:31:40;;;;;;;15.83;8.50;;;;;;;;;;5063998;28;20638;-68
2023/07/19 04:34:08;;;;;;;12.03;9.03;;;;;;;;;;5062595;28;20948;-69
2023/07/19 04:36:36;;;;;;;13.37;8.10;;;;;;;;;;5070324;28;20614;-69
2023/07/19 04:39:05;;;;;;;9.53;7.80;;;;;;;;;;5070833;28;20633;-68
2023/07/19 04:41:34;;;;;;;9.17;7.23;;;;;;;;;;5070154;28;20636;-68
2023/07/19 04:44:03;;;;;;;11.53;8.00;;;;;;;;;;5069150;28;20630;-68
2023/07/19 04:46:32;;;;;;;9.37;7.87;;;;;;;;;;5069209;28;20689;-67
2023/07/19 04:49:01;;;;;;;11.30;7.50;;;;;;;;;;5071102;28;20687;-69
2023/07/19 04:51:30;;;;;;;13.37;8.50;;;;;;;;;;5069255;28;20614;-67
2023/07/19 04:53:58;;;;;;;15.70;7.10;;;;;;;;;;5070321;28;20713;-68
2023/07/19 04:56:27;;;;;;;8.87;7.40;;;;;;;;;;5059925;28;21210;-67
2023/07/19 04:58:57;;;;;;;8.63;7.67;;;;;;;;;;5069511;28;20661;-68
2023/07/19 05:01:25;;;;;;;11.07;7.57;;;;;;;;;;5069991;28;20608;-67
2023/07/19 05:03:53;;;;;;;12.43;7.50;;;;;;;;;;5064502;28;20671;-68
2023/07/19 05:06:23;;;;;;;13.97;7.10;;;;;;;;;;5068208;28;21019;-67
2023/07/19 05:08:51;;;;;;;7.63;6.83;;;;;;;;;;5065210;28;21062;-62
2023/07/19 05:11:20;;;;;;;7.13;6.47;;;;;;;;;;5076481;28;20733;-63
2023/07/19 05:13:49;;;;;;;9.33;6.60;;;;;;;;;;5079134;28;21188;-64
2023/07/19 05:16:17;;;;;;;9.80;7.47;;;;;;;;;;5078496;28;20763;-63
2023/07/19 05:18:46;;;;;;;7.67;6.63;;;;;;;;;;5079080;28;20686;-64
2023/07/19 05:21:16;;;;;;;8.03;7.23;;;;;;;;;;5074619;28;20668;-64
2023/07/19 05:23:45;;;;;;;7.03;6.33;;;;;;;;;;5078355;28;21223;-66
2023/07/19 05:26:14;;;;;;;7.53;6.67;;;;;;;;;;5078084;28;20758;-65
2023/07/19 05:28:42;;;;;;;13.30;6.73;;;;;;;;;;5080058;28;20709;-64
2023/07/19 05:31:10;;;;;;;7.40;6.30;;;;;;;;;;5082367;28;20689;-64
2023/07/19 05:33:38;;;;;;;11.47;6.40;;;;;;;;;;5084849;28;20686;-64
2023/07/19 05:36:07;;;;;;;10.63;6.53;;;;;;;;;;5084782;28;20709;-63
2023/07/19 05:38:35;;;;;;;7.40;5.87;;;;;;;;;;5084825;28;20705;-64
2023/07/19 05:41:06;;;;;;;7.83;6.50;;;;;;;;;;5082082;28;20693;-63
2023/07/19 05:43:35;;;;;;;8.20;6.67;;;;;;;;;;5081886;28;20701;-63
2023/07/19 05:46:03;;;;;;;7.80;6.03;;;;;;;;;;5082947;28;20737;-65
2023/07/19 05:48:32;;;;;;;8.47;6.00;;;;;;;;;;5073202;28;21235;-66
2023/07/19 05:51:01;;;;;;;8.97;7.00;;;;;;;;;;5075670;28;21050;-66
2023/07/19 05:53:29;;;;;;;8.10;6.00;;;;;;;;;;5073711;28;21284;-66
2023/07/19 05:55:57;;;;;;;8.57;5.67;;;;;;;;;;5075763;28;20619;-66
2023/07/19 05:58:28;;;;;;;5.73;5.23;;;;;;;;;;5075172;28;20666;-67
2023/07/19 06:00:56;;;;;;;16.43;6.10;;;;;;;;;;5074954;28;21059;-67
2023/07/19 06:03:25;;;;;;;11.03;5.57;;;;;;;;;;5073560;28;21184;-66
2023/07/19 06:05:53;;;;;;;5.73;5.00;;;;;;;;;;5078930;28;20661;-65
2023/07/19 06:08:21;;;;;;;11.60;5.13;;;;;;;;;;5081450;28;20677;-65
2023/07/19 06:10:51;;;;;;;7.23;5.87;;;;;;;;;;5080761;28;20748;-65
2023/07/19 06:13:19;;;;;;;7.30;5.60;;;;;;;;;;5083318;28;20685;-64
2023/07/19 06:15:49;;;;;;;5.47;4.80;;;;;;;;;;5081595;28;20767;-66
2023/07/19 06:18:17;;;;;;;6.10;5.07;;;;;;;;;;5076233;28;20614;-67
2023/07/19 06:20:46;;;;;;;4.90;4.47;;;;;;;;;;5076858;28;20612;-66
2023/07/19 06:23:14;;;;;;;5.10;4.77;;;;;;;;;;5057801;28;20618;-68
2023/07/19 06:25:42;;;;;;;7.60;5.90;;;;;;;;;;5075813;28;20658;-66
2023/07/19 06:28:10;;;;;;;9.37;6.20;;;;;;;;;;5075736;28;20679;-66
2023/07/19 06:30:39;;;;;;;8.80;5.20;;;;;;;;;;5075960;28;20720;-67
2023/07/19 06:33:08;;;;;;;7.47;5.30;;;;;;;;;;5063773;28;20678;-65
2023/07/19 06:35:36;;;;;;;10.60;5.63;;;;;;;;;;5084992;28;20646;-66
2023/07/19 06:38:05;;;;;;;5.57;5.07;;;;;;;;;;5085075;28;20725;-67
2023/07/19 06:40:33;;;;;;;5.27;4.87;;;;;;;;;;5084491;28;21255;-66
2023/07/19 06:43:01;;;;;;;5.90;4.83;;;;;;;;;;5083483;28;20690;-66
2023/07/19 06:45:29;;;;;;;5.90;5.30;;;;;;;;;;5076042;28;21231;-65
2023/07/19 06:47:58;;;;;;;7.17;4.63;;;;;;;;;;5074065;28;20630;-65
2023/07/19 06:50:27;;;;;;;5.07;4.63;;;;;;;;;;5079543;28;20713;-65
2023/07/19 06:52:56;;;;;;;8.60;5.20;;;;;;;;;;5076461;28;20687;-66
2023/07/19 06:55:24;;;;;;;6.03;4.70;;;;;;;;;;5057887;28;20622;-66
2023/07/19 06:57:52;;;;;;;5.70;4.80;;;;;;;;;;5075631;28;20734;-65
2023/07/19 07:00:21;;;;;;;5.17;4.67;;;;;;;;;;5077846;28;20708;-64
2023/07/19 07:02:49;;;;;;;4.93;4.53;;;;;;;;;;5072545;28;20630;-66
2023/07/19 07:05:17;;;;;;;6.73;5.10;;;;;;;;;;5074322;28;20626;-67
2023/07/19 07:07:47;;;;;;;5.33;4.23;;;;;;;;;;5073680;28;20653;-66
2023/07/19 07:10:15;;;;;;;6.33;5.37;;;;;;;;;;5078397;28;20799;-65
2023/07/19 07:12:46;;;;;;;5.00;4.40;;;;;;;;;;5080977;28;20658;-66
2023/07/19 07:15:14;;;;;;;6.27;4.60;;;;;;;;;;5077942;28;20696;-67
2023/07/19 07:17:43;;;;;;;7.13;4.73;;;;;;;;;;5077178;28;20713;-65
2023/07/19 07:20:11;;;;;;;6.10;5.50;;;;;;;;;;5080654;28;20709;-66
2023/07/19 07:22:39;;;;;;;5.33;4.90;;;;;;;;;;5078702;28;20721;-66
2023/07/19 07:25:09;;;;;;;5.03;4.60;;;;;;;;;;5075397;28;20711;-65
2023/07/19 07:27:37;;;;;;;5.50;5.00;;;;;;;;;;5064629;28;20693;-65
2023/07/19 07:30:07;;;;;;;5.37;4.87;;;;;;;;;;5081238;28;20713;-66
2023/07/19 07:32:35;;;;;;;5.30;4.70;;;;;;;;;;5082588;28;20698;-65
2023/07/19 07:35:06;;;;;;;6.60;4.30;;;;;;;;;;5075723;28;20634;-65
2023/07/19 07:37:34;;;;;;;5.30;4.90;;;;;;;;;;5069283;28;20932;-66
2023/07/19 07:40:03;;;;;;;5.47;4.97;;;;;;;;;;5076665;28;20705;-66
2023/07/19 07:42:33;;;;;;;5.47;5.07;;;;;;;;;;5080060;28;20713;-65
2023/07/19 07:45:01;;;;;;;17.07;5.87;;;;;;;;;;5084133;28;21033;-65
2023/07/19 07:47:29;;;;;;;6.37;5.10;;;;;;;;;;5083851;28;20721;-65
2023/07/19 07:49:57;;;;;;;4.83;4.33;;;;;;;;;;5089608;28;20641;-66
2023/07/19 07:52:25;;;;;;;7.00;4.90;;;;;;;;;;5088502;28;20662;-66
2023/07/19 07:54:54;;;;;;;5.80;4.40;;;;;;;;;;5081788;28;20733;-66
2023/07/19 07:57:22;;;;;;;4.83;4.43;;;;;;;;;;5087618;28;20650;-65
2023/07/19 07:59:51;;;;;;;4.70;4.30;;;;;;;;;;5088702;28;21079;-66
2023/07/19 08:02:20;;;;;;;6.07;4.53;;;;;;;;;;5085852;28;20651;-66
2023/07/19 08:04:48;;;;;;;4.67;4.20;;;;;;;;;;5085820;28;20646;-67
2023/07/19 08:07:16;;;;;;;10.07;5.30;;;;;;;;;;5086314;28;20677;-66
2023/07/19 08:09:44;;;;;;;5.87;5.37;;;;;;;;;;5076722;28;20701;-67
2023/07/19 08:12:12;;;;;;;7.47;6.67;;;;;;;;;;5074428;28;20652;-67
2023/07/19 08:14:41;;;;;;;5.30;4.27;;;;;;;;;;5080061;28;20725;-66
2023/07/19 08:17:10;;;;;;;12.23;6.47;;;;;;;;;;5077985;28;21207;-66
2023/07/19 08:19:39;;;;;;;5.40;4.53;;;;;;;;;;5072702;28;21260;-67
2023/07/19 08:22:07;;;;;;;11.83;9.23;;;;;;;;;;5067715;28;20671;-66
2023/07/19 08:24:35;;;;;;;7.37;6.67;;;;;;;;;;5072232;28;20626;-67
2023/07/19 08:27:04;;;;;;;5.83;4.30;;;;;;;;;;5069938;28;21227;-66
2023/07/19 08:29:32;;;;;;;10.23;5.30;;;;;;;;;;5071788;28;20622;-67
2023/07/19 08:32:01;;;;;;;6.33;5.80;;;;;;;;;;5071265;28;20636;-66
2023/07/19 08:34:30;;;;;;;7.13;4.90;;;;;;;;;;5072766;28;20620;-67
2023/07/19 08:36:59;;;;;;;5.37;4.80;;;;;;;;;;5074596;28;20625;-67
2023/07/19 08:39:28;;;;;;;5.00;4.60;;;;;;;;;;5076455;28;20782;-67
2023/07/19 08:41:56;;;;;;;5.03;4.73;;;;;;;;;;5063833;28;20641;-66
2023/07/19 08:44:24;;;;;;;10.67;4.90;;;;;;;;;;5072750;28;21274;-66
2023/07/19 08:46:52;;;;;;;5.00;4.67;;;;;;;;;;5067027;28;20658;-66
2023/07/19 08:49:21;;;;;;;5.10;4.23;;;;;;;;;;5065597;28;20973;-66
2023/07/19 08:51:50;;;;;;;5.83;4.50;;;;;;;;;;5070464;28;20638;-66
2023/07/19 08:54:19;;;;;;;4.93;4.40;;;;;;;;;;5074085;28;21203;-67
2023/07/19 08:56:47;;;;;;;6.90;4.83;;;;;;;;;;5072130;28;20622;-66
2023/07/19 08:59:16;;;;;;;5.83;5.30;;;;;;;;;;5072819;28;20992;-67
2023/07/19 09:01:44;;;;;;;4.83;4.43;;;;;;;;;;5074693;28;20681;-68
2023/07/19 09:04:12;;;;;;;8.37;6.03;;;;;;;;;;5073806;28;20628;-66
2023/07/19 09:06:42;;;;;;;5.13;4.33;;;;;;;;;;5075746;28;20626;-66
2023/07/19 09:09:12;;;;;;;4.60;4.20;;;;;;;;;;5076017;28;20652;-67
2023/07/19 09:11:44;;;;;;;4.90;4.50;;;;;;;;;;5075339;28;20650;-67
2023/07/19 09:14:12;;;;;;;5.03;4.60;;;;;;;;;;5071843;28;20636;-66
2023/07/19 09:16:41;;;;;;;5.20;4.80;;;;;;;;;;5074893;28;21009;-66
2023/07/19 09:19:10;;;;;;;5.07;4.10;;;;;;;;;;5075665;28;20614;-65
2023/07/19 09:21:40;;;;;;;8.00;5.20;;;;;;;;;;5075593;28;20655;-69
2023/07/19 09:24:08;;;;;;;5.63;4.90;;;;;;;;;;5076053;28;20622;-67
2023/07/19 09:26:49;;;;;;;5.30;4.90;;;;;;;;;;5076607;28;20989;-65
2023/07/19 09:29:18;;;;;;;6.23;5.30;;;;;;;;;;5076880;28;20600;-64
2023/07/19 09:31:54;;;;;;;7.20;4.63;;;;;;;;;;5076120;28;20687;-65
2023/07/19 09:34:23;;;;;;;5.63;5.10;;;;;;;;;;5074559;28;20604;-67
2023/07/19 09:36:52;;;;;;;12.67;10.87;;;;;;;;;;5074011;28;20628;-65
2023/07/19 09:39:21;;;;;;;5.57;5.17;;;;;;;;;;5075729;28;21088;-65
2023/07/19 09:41:51;;;;;;;5.37;4.97;;;;;;;;;;5074963;28;20717;-64
2023/07/19 09:44:19;;;;;;;7.10;4.87;;;;;;;;;;5076544;28;20689;-66
2023/07/19 09:46:47;;;;;;;6.47;4.70;;;;;;;;;;5079253;28;21063;-64
2023/07/19 09:49:16;;;;;;;5.50;4.60;;;;;;;;;;5079476;28;20697;-65
2023/07/19 09:51:44;;;;;;;5.57;5.17;;;;;;;;;;5060874;28;20684;-69
2023/07/19 09:54:13;;;;;;;5.37;4.90;;;;;;;;;;5079857;28;21208;-65
2023/07/19 09:56:42;;;;;;;5.40;4.87;;;;;;;;;;5084693;28;20717;-64
2023/07/19 09:59:13;;;;;;;5.77;5.10;;;;;;;;;;5077767;28;20721;-65
2023/07/19 10:01:41;;;;;;;4.80;4.40;;;;;;;;;;5074558;28;20669;-65
2023/07/19 10:04:23;;;;;;;5.97;4.90;;;;;;;;;;5076686;28;21228;-65
2023/07/19 10:06:51;;;;;;;4.87;4.57;;;;;;;;;;5079966;28;21125;-64
2023/07/19 10:09:33;;;;;;;4.77;4.50;;;;;;;;;;5085105;28;20753;-63
2023/07/19 10:12:01;;;;;;;5.73;5.13;;;;;;;;;;5075683;28;20678;-65
2023/07/19 10:14:33;;;;;;;5.87;5.37;;;;;;;;;;5078816;28;20725;-64
2023/07/19 10:17:03;;;;;;;5.90;4.30;;;;;;;;;;5081521;28;20718;-64
2023/07/19 10:19:31;;;;;;;6.27;5.77;;;;;;;;;;5070478;28;20708;-65
2023/07/19 10:22:04;;;;;;;6.53;6.00;;;;;;;;;;5073926;28;21077;-64
2023/07/19 10:24:33;;;;;;;5.03;4.63;;;;;;;;;;5077461;28;20753;-65
2023/07/19 10:27:02;;;;;;;9.97;6.67;;;;;;;;;;5083738;28;20674;-65
2023/07/19 10:29:40;;;;;;;4.83;4.53;;;;;;;;;;5077169;28;20694;-64
2023/07/19 10:32:08;;;;;;;7.93;5.13;;;;;;;;;;5083704;28;20685;-66
2023/07/19 10:34:37;;;;;;;5.30;4.73;;;;;;;;;;5080655;28;20713;-65
2023/07/19 10:37:06;;;;;;;6.00;5.40;;;;;;;;;;5083905;28;21090;-65
2023/07/19 10:39:34;;;;;;;5.73;5.07;;;;;;;;;;5085344;28;20733;-66
2023/07/19 10:42:02;;;;;;;5.87;5.43;;;;;;;;;;5085515;28;20638;-65
2023/07/19 10:44:31;;;;;;;10.33;5.20;;;;;;;;;;5085378;28;20626;-66
2023/07/19 10:47:00;;;;;;;5.40;4.47;;;;;;;;;;5081325;28;20694;-67
2023/07/19 10:49:29;;;;;;;7.13;5.30;;;;;;;;;;5084845;28;20737;-63
2023/07/19 10:51:58;;;;;;;6.67;5.30;;;;;;;;;;5083468;28;20713;-66
2023/07/19 10:54:28;;;;;;;6.30;5.27;;;;;;;;;;5084264;28;20701;-63
2023/07/19 10:56:57;;;;;;;8.67;5.10;;;;;;;;;;5086452;28;20713;-63
2023/07/19 10:59:25;;;;;;;5.67;5.27;;;;;;;;;;5083484;28;20709;-64
2023/07/19 11:01:53;;;;;;;6.50;5.10;;;;;;;;;;5054694;28;21135;-63
2023/07/19 11:04:23;;;;;;;9.53;5.70;;;;;;;;;;5080776;28;20701;-62
2023/07/19 11:06:55;;;;;;;18.17;5.33;;;;;;;;;;5082109;28;21196;-63
2023/07/19 11:09:24;;;;;;;6.50;5.87;;;;;;;;;;5079824;28;20796;-62
2023/07/19 11:11:53;;;;;;;5.90;5.33;;;;;;;;;;5077789;28;20744;-63
2023/07/19 11:14:31;;;;;;;10.77;6.13;;;;;;;;;;5082799;28;20725;-63
2023/07/19 11:16:59;;;;;;;8.87;5.57;;;;;;;;;;5081635;28;21274;-64
2023/07/19 11:19:36;;;;;;;5.70;5.13;;;;;;;;;;5081901;28;20702;-63
2023/07/19 11:22:04;;;;;;;5.17;4.77;;;;;;;;;;5081385;28;20681;-64
2023/07/19 11:24:39;;;;;;;5.83;5.33;;;;;;;;;;5081294;28;20725;-63
2023/07/19 11:27:08;;;;;;;5.97;5.57;;;;;;;;;;5069046;28;20702;-62
2023/07/19 11:29:36;;;;;;;6.80;5.10;;;;;;;;;;5080824;28;20650;-64
2023/07/19 11:32:16;;;;;;;6.20;5.63;;;;;;;;;;5073788;28;20738;-66
2023/07/19 11:34:47;;;;;;;8.47;5.30;;;;;;;;;;5080824;28;20666;-63
2023/07/19 11:37:21;;;;;;;5.37;5.07;;;;;;;;;;5081132;28;20705;-64
2023/07/19 11:39:50;;;;;;;5.80;5.30;;;;;;;;;;5079335;28;20754;-63
2023/07/19 11:42:33;;;;;;;8.60;5.40;;;;;;;;;;5073036;28;20729;-64
2023/07/19 11:45:08;;;;;;;5.43;4.87;;;;;;;;;;5056830;28;20756;-63
2023/07/19 11:47:36;;;;;;;5.77;5.37;;;;;;;;;;5075571;28;20704;-64
2023/07/19 11:50:07;;;;;;;5.30;4.80;;;;;;;;;;5075769;28;20746;-65
2023/07/19 11:52:43;;;;;;;8.47;6.00;;;;;;;;;;5075845;28;20678;-63
2023/07/19 11:55:12;;;;;;;6.70;5.30;;;;;;;;;;5077935;28;20670;-65
2023/07/19 11:57:40;;;;;;;5.93;5.53;;;;;;;;;;5073644;28;20746;-64
2023/07/19 12:00:10;;;;;;;6.03;5.60;;;;;;;;;;5083839;28;20626;-64
2023/07/19 12:02:38;;;;;;;7.10;6.50;;;;;;;;;;5072079;28;20686;-65
2023/07/19 12:05:08;;;;;;;7.30;6.60;;;;;;;;;;5080120;28;20697;-64
2023/07/19 12:07:36;;;;;;;7.10;6.50;;;;;;;;;;5080719;28;20706;-63
2023/07/19 12:10:05;;;;;;;7.33;5.93;;;;;;;;;;5083755;28;20738;-65
2023/07/19 12:12:34;;;;;;;13.30;6.30;;;;;;;;;;5075166;28;20671;-64
2023/07/19 12:15:04;;;;;;;4.87;4.47;;;;;;;;;;5083127;28;20622;-64
2023/07/19 12:17:51;;;;;;;6.50;4.30;;;;;;;;;;5085801;28;20607;-63
2023/07/19 12:20:20;;;;;;;13.53;4.70;;;;;;;;;;5087189;28;20687;-64
2023/07/19 12:22:49;;;;;;;9.20;4.90;;;;;;;;;;5086757;28;20657;-63
2023/07/19 12:25:18;;;;;;;9.07;4.80;;;;;;;;;;5080688;28;20677;-63
2023/07/19 12:27:52;;;;;;;4.50;4.10;;;;;;;;;;5082684;28;20682;-63
2023/07/19 12:30:21;;;;;;;5.53;4.13;;;;;;;;;;5084303;28;20713;-62
2023/07/19 12:32:50;;;;;;;4.57;4.20;;;;;;;;;;5084812;28;21312;-64
2023/07/19 12:35:19;;;;;;;5.67;4.93;;;;;;;;;;5081014;28;20713;-63
2023/07/19 12:37:48;;;;;;;4.97;4.57;;;;;;;;;;5081359;28;20731;-64
2023/07/19 12:40:16;;;;;;;6.13;5.63;;;;;;;;;;5078697;28;20709;-64
2023/07/19 12:42:45;;;;;;;6.20;5.80;;;;;;;;;;5081649;28;20705;-64
2023/07/19 12:45:13;;;;;;;5.80;5.40;;;;;;;;;;5060783;28;20714;-63
2023/07/19 12:47:42;;;;;;;6.10;5.30;;;;;;;;;;5069233;28;20765;-64
2023/07/19 12:50:10;;;;;;;9.40;5.87;;;;;;;;;;5058407;28;20726;-65
2023/07/19 12:52:38;;;;;;;7.07;5.83;;;;;;;;;;5061484;28;20671;-63
2023/07/19 12:55:09;;;;;;;6.00;5.60;;;;;;;;;;5080186;28;21065;-63
2023/07/19 12:57:37;;;;;;;6.97;6.37;;;;;;;;;;5079921;28;20710;-64
2023/07/19 13:00:06;;;;;;;6.90;6.30;;;;;;;;;;5073721;28;20693;-68
2023/07/19 13:02:34;;;;;;;8.10;7.30;;;;;;;;;;5068584;28;20957;-67
2023/07/19 13:05:02;;;;;;;6.33;6.00;;;;;;;;;;5068342;28;20632;-67
2023/07/19 13:07:30;;;;;;;6.77;6.37;;;;;;;;;;5068685;28;20622;-66
2023/07/19 13:09:59;;;;;;;6.30;5.70;;;;;;;;;;5069142;28;20674;-66
2023/07/19 13:12:28;;;;;;;7.30;6.60;;;;;;;;;;5065758;28;20638;-67
2023/07/19 13:14:57;;;;;;;7.20;6.50;;;;;;;;;;5066404;28;20835;-68
2023/07/19 13:17:26;;;;;;;6.47;5.70;;;;;;;;;;5059224;28;20641;-67
2023/07/19 13:19:54;;;;;;;7.10;6.17;;;;;;;;;;5063844;28;21180;-66
2023/07/19 13:22:24;;;;;;;7.00;6.50;;;;;;;;;;5069409;28;20963;-67
2023/07/19 13:24:52;;;;;;;10.67;6.87;;;;;;;;;;5068202;28;21217;-67
2023/07/19 13:27:20;;;;;;;6.53;6.03;;;;;;;;;;5065994;28;21003;-67
2023/07/19 13:29:50;;;;;;;7.53;6.93;;;;;;;;;;5068061;28;21116;-67
2023/07/19 13:32:18;;;;;;;7.27;6.70;;;;;;;;;;5069790;28;20610;-67
2023/07/19 13:34:46;;;;;;;6.47;6.03;;;;;;;;;;5068901;28;20620;-66
2023/07/19 13:37:15;;;;;;;10.17;6.30;;;;;;;;;;5069347;28;20622;-68
2023/07/19 13:39:43;;;;;;;7.10;6.50;;;;;;;;;;5067492;28;20618;-69
2023/07/19 13:42:11;;;;;;;7.03;6.33;;;;;;;;;;5069478;28;20625;-69
2023/07/19 13:44:40;;;;;;;7.50;6.60;;;;;;;;;;5069024;28;20619;-68
2023/07/19 13:47:09;;;;;;;6.67;5.87;;;;;;;;;;5068212;28;20625;-68
2023/07/19 13:49:37;;;;;;;6.40;6.00;;;;;;;;;;5068018;28;21234;-69
2023/07/19 13:52:06;;;;;;;7.70;6.87;;;;;;;;;;5071943;28;21007;-68
2023/07/19 13:54:35;;;;;;;8.50;7.10;;;;;;;;;;5071831;28;20634;-67
2023/07/19 13:57:04;;;;;;;8.07;6.77;;;;;;;;;;5072181;28;21209;-68
2023/07/19 13:59:32;;;;;;;7.30;6.63;;;;;;;;;;5072303;28;20951;-66
2023/07/19 14:02:02;;;;;;;7.13;6.63;;;;;;;;;;5069991;28;20618;-65
2023/07/19 14:04:32;;;;;;;7.30;6.47;;;;;;;;;;5071255;28;20679;-66
2023/07/19 14:07:00;;;;;;;6.60;6.20;;;;;;;;;;5069542;28;20735;-65
2023/07/19 14:09:28;;;;;;;7.10;6.50;;;;;;;;;;5072218;28;20658;-65
2023/07/19 14:11:56;;;;;;;7.00;6.27;;;;;;;;;;5072113;28;20653;-65
2023/07/19 14:14:27;;;;;;;7.40;6.73;;;;;;;;;;5072055;28;20614;-65
2023/07/19 14:16:55;;;;;;;7.80;6.73;;;;;;;;;;5070550;28;20618;-65
2023/07/19 14:19:24;;;;;;;9.03;6.20;;;;;;;;;;5069267;28;20630;-66
2023/07/19 14:21:53;;;;;;;6.87;6.33;;;;;;;;;;5072317;28;20630;-65
2023/07/19 14:24:21;;;;;;;5.97;5.67;;;;;;;;;;5073360;28;20647;-64
2023/07/19 14:26:50;;;;;;;7.23;6.17;;;;;;;;;;5071765;28;20632;-65
2023/07/19 14:29:20;;;;;;;6.23;5.80;;;;;;;;;;5072136;28;20671;-64
2023/07/19 14:31:48;;;;;;;5.87;5.50;;;;;;;;;;5089698;28;20649;-67
2023/07/19 14:34:16;;;;;;;6.33;5.80;;;;;;;;;;5092635;28;20638;-68
2023/07/19 14:36:45;;;;;;;5.77;5.37;;;;;;;;;;5095120;28;20649;-68
2023/07/19 14:39:14;;;;;;;5.60;5.10;;;;;;;;;;5092914;28;20662;-67
2023/07/19 14:41:42;;;;;;;5.80;5.40;;;;;;;;;;5088143;28;20627;-67
2023/07/19 14:44:10;;;;;;;7.03;6.50;;;;;;;;;;5086908;28;21133;-67
2023/07/19 14:46:39;;;;;;;6.50;5.50;;;;;;;;;;5096313;28;20676;-67
2023/07/19 14:49:08;;;;;;;9.17;5.40;;;;;;;;;;5094035;28;20634;-67